Menston, United Kingdom
Current Conditions -  °F | °C
As of 12:50 PM on Saturday 20 Dec 2014 (Local Time) from EGNM Reporting Station
Scattered Clouds Scattered Clouds  
Wind Chill: 35°   Ceiling: Unl
Heat Index: 43°   Visibility: 6mi
Dew Point: 39°   Wind: 16mph
Humidity: 87%   Direction: 280°W
Pressure: 30.18"   Gusts: 28mph
Location:  53.89°N, 1.74°W
Report Text: EGNM 201250Z 28014G24KT 250V310 9999 FEW010 SCT020 06/04 Q1022
Loading
Personal Weather Stations






























Interactive Weather Map New forecast layout! Learn more

10-Day Weather Forecast

Advertisements
Track Severe Weather on mobile